Home > Products > Valid Products > MTR

000
SAUS46 KSTO 220953
MTRBLU
METAR KBLU 220952Z AUTO 14007KT 1/2SM -RA FG VV002 03/02 A3013 RMK
AO2 SLP186 P0005 T00330022





000
SAUS46 KSTO 220853
MTRBLU
METAR KBLU 220852Z AUTO 15007KT 3/4SM -RA BR VV004 03/02 A3014 RMK
AO2 RAB05E18B30 SLP189 P0002 60002 T00330022 58004





000
SAUS46 KSTO 220837
MTRBLU
SPECI KBLU 220836Z AUTO 14008KT 1 1/4SM -RA BR OVC004 03/02 A3014
RMK AO2 RAB05E18B30 P0002 T00330017





000
SAUS46 KSTO 220828
MTRBLU
SPECI KBLU 220827Z AUTO 14007KT 1 1/4SM BR OVC006 03/02 A3014 RMK
AO2 RAB05E18 P0001 T00330017





000
SAUS46 KSTO 220813
MTRBLU
SPECI KBLU 220811Z AUTO 13006KT 2 1/2SM -RA BR BKN008 OVC013 03/02
A3014 RMK AO2 RAB05 P0001 T00330017





000
SAUS46 KSTO 220806
MTRBLU
SPECI KBLU 220804Z AUTO 13006KT 3SM BR SCT007 OVC013 03/02 A3014 RMK
AO2 T00330017





000
SAUS46 KSTO 220757
MTRBLU
SPECI KBLU 220756Z AUTO 14005KT 2 1/2SM BR BKN009 OVC017 03/02 A3015
RMK AO2 T00330017





000
SAUS46 KSTO 220754
MTRBLU
METAR KBLU 220752Z AUTO 14006KT 3SM BR SCT009 OVC017 03/02 A3015 RMK
AO2 RAE00 SLP193 P0000 T00330017 400720000





000
SAUS46 KSTO 220700
MTRBLU
SPECI KBLU 220659Z AUTO 14007KT 100V160 3SM -RA BR FEW007 OVC017
03/01 A3016 RMK AO2 P0000 T00330011





000
SAUS46 KSTO 220653
MTRBLU
METAR KBLU 220652Z AUTO 15006KT 5SM -RA OVC017 04/01 A3016 RMK AO2
RAB52 SLP198 P0000 T00390006





000
SAUS46 KSTO 220553
MTRBLU
METAR KBLU 220552Z AUTO 18007KT 10SM BKN018 OVC028 04/01 A3015 RMK
AO2 PRESRR SLP194 60001 T00440006 10050 20039 51008





000
SAUS46 KSTO 220453
MTRBLU
METAR KBLU 220452Z AUTO 14005KT 10SM OVC019 04/01 A3014 RMK AO2
SLP190 T00440006





000
SAUS46 KSTO 220353
MTRBLU
METAR KBLU 220352Z AUTO 13004KT 10SM BKN021 OVC028 04/01 A3014 RMK
AO2 SLP193 T00440006





000
SAUS46 KSTO 220253
MTRBLU
METAR KBLU 220252Z AUTO 12005KT 10SM OVC024 04/02 A3012 RMK AO2
SLP193 60001 T00440022 50002





000
SAUS46 KSTO 220153
MTRBLU
METAR KBLU 220152Z AUTO 12004KT 10SM OVC025 04/02 A3013 RMK AO2
RAE32 SLP194 P0001 T00440022





000
SAUS46 KSTO 220128
MTRBLU
SPECI KBLU 220126Z AUTO VRB03KT 8SM -RA SCT010 OVC027 04/03 A3013
RMK AO2 P0001 T00440028





000
SAUS46 KSTO 220124
MTRBLU
SPECI KBLU 220122Z AUTO 12004KT 2 1/2SM -RA BR BKN010 OVC027 04/03
A3012 RMK AO2 P0001 T00440028





000
SAUS46 KSTO 220121
MTRBLU
SPECI KBLU 220119Z AUTO 11004KT 1 1/2SM -RA BR FEW003 BKN008 OVC027
04/03 A3012 RMK AO2 P0001 T00440033





000
SAUS46 KSTO 220112
MTRBLU
SPECI KBLU 220111Z AUTO VRB03KT 1SM -RA BR BKN002 OVC027 04/03 A3012
RMK AO2 P0001 T00440033





000
SAUS46 KSTO 220102
MTRBLU
SPECI KBLU 220101Z AUTO 13003KT 3/4SM -RA BR VV002 04/03 A3012 RMK
AO2 P0000 T00440033





000
SAUS46 KSTO 220053
MTRBLU
METAR KBLU 220052Z AUTO 13003KT 1 1/4SM -RA BR BKN002 OVC031 04/03
A3012 RMK AO2 VIS 3/4V5 RAB14E23B51 SLP195 P0000 T00440033





000
SAUS46 KSTO 220051
MTRBLU
SPECI KBLU 220050Z AUTO VRB03KT 1 3/4SM BR BKN002 OVC031 04/03 A3012
RMK AO2 VIS 3/4V5 RAB14E23 P0000





000
SAUS46 KSTO 212354
MTRBLU
METAR KBLU 212352Z AUTO 24004KT 10SM OVC004 05/03 A3012 RMK AO2
SLP187 T00500028 10072 20050 53006





000
SAUS46 KSTO 212336
MTRBLU
SPECI KBLU 212334Z AUTO 25005KT 10SM BKN004 BKN008 OVC050 05/03
A3011 RMK AO2 T00500028





000
SAUS46 KSTO 212329
MTRBLU
SPECI KBLU 212327Z AUTO 26005KT 10SM SCT006 BKN041 OVC050 06/03
A3011 RMK AO2 T00560028





000
SAUS46 KSTO 212253
MTRBLU
METAR KBLU 212252Z AUTO 18005KT 10SM OVC060 07/02 A3010 RMK AO2
SLP179 T00670017





000
SAUS46 KSTO 212153
MTRBLU
METAR KBLU 212152Z AUTO 18007KT 10SM SCT080 07/02 A3008 RMK AO2
SLP175 T00670022





000
SAUS46 KSTO 212054
MTRBLU
METAR KBLU 212052Z AUTO 00000KT 10SM SCT013 BKN090 07/03 A3010 RMK
AO2 SLP177 T00670028 55000





000
SAUS46 KSTO 211954 COR
MTRBLU
METAR KBLU 211952Z AUTO 20005KT 10SM CLR 06/01 A3010 RMK AO2 SLP177
T00610006





000
SAUS46 KSTO 211853
MTRBLU
METAR KBLU 211852Z AUTO 15005KT 10SM CLR 06/00 A3010 RMK AO2 SLP177
T00610000





000
SAUS46 KSTO 211753
MTRBLU
METAR KBLU 211752Z AUTO 22003KT 10SM CLR 05/00 A3010 RMK AO2 SLP183
T00500000 10050 20000 51014





000
SAUS46 KSTO 211653
MTRBLU
METAR KBLU 211652Z AUTO 00000KT 10SM CLR 05/M01 A3009 RMK AO2 SLP180
T00501006





000
SAUS46 KSTO 211553
MTRBLU
METAR KBLU 211552Z AUTO 00000KT 10SM CLR 04/M02 A3007 RMK AO2 SLP177
T00391017





000
SAUS46 KSTO 211553
MTRBLU
METAR KBLU 211552Z AUTO 00000KT 10SM CLR 04/M02 A3007 RMK AO2 SLP177
T00391017





000
SAUS46 KSTO 211453
MTRBLU
METAR KBLU 211452Z AUTO 00000KT 10SM CLR 02/M02 A3005 RMK AO2 SLP170
T00221022 53004





000
SAUS46 KSTO 211353
MTRBLU
METAR KBLU 211352Z AUTO 00000KT 10SM CLR 02/M02 A3004 RMK AO2 SLP167
T00221017





000
SAUS46 KSTO 211253
MTRBLU
METAR KBLU 211252Z AUTO 07003KT 10SM CLR 01/M02 A3003 RMK AO2 SLP168
T00111017





000
SAUS46 KSTO 211153
MTRBLU
METAR KBLU 211152Z AUTO 00000KT 10SM CLR 02/M01 A3004 RMK AO2 SLP165
70051 T00221011 10022 20000 56004





000
SAUS46 KSTO 211053
MTRBLU
METAR KBLU 211052Z AUTO 00000KT 10SM CLR 02/M02 A3004 RMK AO2 SLP169
T00221017





000
SAUS46 KSTO 210953
MTRBLU
METAR KBLU 210952Z AUTO 00000KT 6SM BR SCT015 01/M01 A3003 RMK AO2
SLP165 T00111011





000
SAUS46 KSTO 210853
MTRBLU
METAR KBLU 210852Z AUTO 00000KT 10SM OVC017 02/00 A3005 RMK AO2
SLP170 T00220000 57002





000
SAUS46 KSTO 210754
MTRBLU
METAR KBLU 210752Z AUTO 00000KT 10SM OVC018 02/01 A3005 RMK AO2
SLP168 T00220006 400610011





000
SAUS46 KSTO 210736
MTRBLU
SPECI KBLU 210734Z AUTO 00000KT 3SM BR OVC015 02/01 A3005 RMK AO2
T00220006





000
SAUS46 KSTO 210653
MTRBLU
METAR KBLU 210652Z AUTO 00000KT 10SM BKN013 OVC020 02/01 A3005 RMK
AO2 SLP165 T00220006





000
SAUS46 KSTO 210643
MTRBLU
SPECI KBLU 210642Z AUTO 00000KT 10SM BKN015 OVC020 02/01 A3005 RMK
AO2 T00220006





000
SAUS46 KSTO 210553
MTRBLU
METAR KBLU 210552Z AUTO 00000KT 10SM OVC012 02/00 A3006 RMK AO2
SLP166 60015 T00170000 10028 20011 53006





000
SAUS46 KSTO 210453
MTRBLU
METAR KBLU 210452Z AUTO 10003KT 10SM BKN013 BKN032 OVC085 01/M01
A3003 RMK AO2 UPB03E21B31E39RAB21E31SNE03 SLP161 P0001 T00111006





000
SAUS46 KSTO 210430
MTRBLU
SPECI KBLU 210429Z AUTO 10003KT 7SM -RA SCT012 BKN045 OVC080 01/M01
A3003 RMK AO2 UPB03E21RAB21SNE03 P0001 T00111006





000
SAUS46 KSTO 210401
MTRBLU
SPECI KBLU 210359Z AUTO 07003KT 3SM -SN BR OVC013 01/M01 A3003 RMK
AO2 P0001 T00111006





000
SAUS46 KSTO 210354
MTRBLU
METAR KBLU 210352Z AUTO 00000KT 1 3/4SM -SN BR BKN011 OVC020 01/M01
A3003 RMK AO2 RAE21SNB21 SLP161 P0008 T00111006





000
SAUS46 KSTO 210354
MTRBLU
METAR KBLU 210352Z AUTO 00000KT 1 3/4SM -SN BR BKN011 OVC020 01/M01
A3003 RMK AO2 RAE21SNB21 SLP161 P0008 T00111006





000
SAUS46 KSTO 210349
MTRBLU
SPECI KBLU 210348Z AUTO 09003KT 1 1/2SM -SN BR FEW003 OVC011 01/M01
A3003 RMK AO2 RAE21SNB21 P0007





000
SAUS46 KSTO 210349
MTRBLU
SPECI KBLU 210348Z AUTO 09003KT 1 1/2SM -SN BR FEW003 OVC011 01/M01
A3003 RMK AO2 RAE21SNB21 P0007





000
SAUS46 KSTO 210341
MTRBLU
SPECI KBLU 210339Z AUTO 09003KT 1 1/4SM -SN BR FEW004 OVC009 01/M01
A3003 RMK AO2 RAE21SNB21 P0007 T00111006





000
SAUS46 KSTO 210341
MTRBLU
SPECI KBLU 210339Z AUTO 09003KT 1 1/4SM -SN BR FEW004 OVC009 01/M01
A3003 RMK AO2 RAE21SNB21 P0007 T00111006





000
SAUS46 KSTO 210332
MTRBLU
SPECI KBLU 210331Z AUTO 11004KT 1 1/2SM -SN BR OVC004 01/00 A3003
RMK AO2 RAE21SNB21 P0005 T00110000





000
SAUS46 KSTO 210319
MTRBLU
SPECI KBLU 210318Z AUTO 17007KT 2SM RA BR OVC004 02/01 A3004 RMK AO2
P0003 T00220006





000
SAUS46 KSTO 210319
MTRBLU
SPECI KBLU 210318Z AUTO 17007KT 2SM RA BR OVC004 02/01 A3004 RMK AO2
P0003 T00220006





000
SAUS46 KSTO 210310
MTRBLU
SPECI KBLU 210309Z AUTO 19005KT 5SM -RA BR OVC003 02/01 A3004 RMK
AO2 P0002 T00220011





000
SAUS46 KSTO 210310
MTRBLU
SPECI KBLU 210309Z AUTO 19005KT 5SM -RA BR OVC003 02/01 A3004 RMK
AO2 P0002 T00220011





000
SAUS46 KSTO 210303
MTRBLU
SPECI KBLU 210302Z AUTO 19003KT 2SM -RA BR OVC003 03/01 A3004 RMK
AO2 P0001 T00280011





000
SAUS46 KSTO 210253
MTRBLU
METAR KBLU 210252Z AUTO 21004KT 1SM -RA BR VV003 03/01 A3003 RMK AO2
RAE0154B21UPB0154E21 SLP158 P0003 60006 T00280011 53003





000
SAUS46 KSTO 210244
MTRBLU
SPECI KBLU 210243Z AUTO 20005KT 3/4SM -RA BR VV002 03/02 A3003 RMK
AO2 RAE0154B21UPB0154E21 P0002 T00280017





000
SAUS46 KSTO 210237
MTRBLU
SPECI KBLU 210236Z AUTO 22005KT 1SM -RA BR VV002 03/02 A3003 RMK AO2
RAE0154B21UPB0154E21 P0002 T00280017





000
SAUS46 KSTO 210213
MTRBLU
SPECI KBLU 210212Z AUTO 21006KT 3/4SM UP BR OVC003 03/02 A3003 RMK
AO2 RAE0154UPB0154 P0001 T00280017





000
SAUS46 KSTO 210209
MTRBLU
SPECI KBLU 210207Z AUTO 19005KT 1 3/4SM UP BR OVC003 03/02 A3003 RMK
AO2 VIS 3/4V4 RAE0154UPB0154 P0001 T00280017





000
SAUS46 KSTO 210153
MTRBLU
METAR KBLU 210152Z AUTO 19005KT 8SM -RA OVC003 03/01 A3003 RMK AO2
UPE07RAB0058 SLP156 P0003 T00280011





000
SAUS46 KSTO 210146
MTRBLU
SPECI KBLU 210145Z AUTO 19005KT 3SM -RA BR OVC003 03/01 A3003 RMK
AO2 UPE07RAB0058 P0003 T00280011





000
SAUS46 KSTO 210139
MTRBLU
SPECI KBLU 210138Z AUTO 18007KT 1 3/4SM -RA BR OVC003 03/01 A3003
RMK AO2 VIS 1V5 UPE07RAB0058 P0003 T00280011





000
SAUS46 KSTO 210125
MTRBLU
SPECI KBLU 210124Z AUTO 17006KT 6SM -RA BR BKN004 OVC007 03/02 A3003
RMK AO2 UPE07RAB0058 P0001 T00280017





000
SAUS46 KSTO 210054
MTRBLU
METAR KBLU 210052Z AUTO VRB04KT 10SM UP FEW004 BKN008 OVC013 03/01
A3002 RMK AO2 RAE01UPB01E08B52 SLP156 P0000 T00280011





000
SAUS46 KSTO 210042
MTRBLU
SPECI KBLU 210041Z AUTO 12003KT 9SM SCT002 BKN006 OVC014 02/01 A3002
RMK AO2 RAE01UPB01E08 P0000 T00220011





000
SAUS46 KSTO 210036
MTRBLU
SPECI KBLU 210035Z AUTO 13005KT 2SM BR BKN002 OVC012 02/01 A3002 RMK
AO2 RAE01UPB01E08 P0000 T00220011





000
SAUS46 KSTO 210034
MTRBLU
SPECI KBLU 210032Z AUTO VRB05KT 1SM BR BKN002 OVC012 03/01 A3002 RMK
AO2 RAE01UPB01E08 P0000 T00280011





000
SAUS46 KSTO 210005
MTRBLU
SPECI KBLU 210004Z AUTO VRB05KT 1/4SM UP FG VV002 03/02 A3002 RMK
AO2 RAE01UPB01 P0000 T00280017





000
SAUS46 KSTO 202353
MTRBLU
METAR KBLU 202352Z AUTO 15006KT 3/4SM -RA BR OVC004 03/02 A3002 RMK
AO2 SLP158 P0013 60036 T00280017 10056 20022 58003





000
SAUS46 KSTO 202351
MTRBLU
SPECI KBLU 202350Z AUTO 14007KT 1 1/2SM -RA BR OVC004 03/01 A3002
RMK AO2 P0013





000
SAUS46 KSTO 202345
MTRBLU
SPECI KBLU 202344Z AUTO 14005KT 3SM -RA BR OVC004 02/01 A3003 RMK
AO2 P0012 T00220011





000
SAUS46 KSTO 202340
MTRBLU
SPECI KBLU 202339Z AUTO VRB06KT 1 1/2SM -RA BR OVC003 02/01 A3003
RMK AO2 VIS 1/2V5 P0012 T00220011





000
SAUS46 KSTO 202330
MTRBLU
SPECI KBLU 202328Z AUTO 17008KT 3SM -RA BR OVC003 02/01 A3003 RMK
AO2 P0010 T00220011





000
SAUS46 KSTO 202321
MTRBLU
SPECI KBLU 202320Z AUTO 18011KT 1 1/2SM RA BR OVC003 03/01 A3003 RMK
AO2 VIS 3/4V4 P0009 T00280011





000
SAUS46 KSTO 202300
MTRBLU
SPECI KBLU 202259Z AUTO 20009G15KT 3/4SM RA BR OVC004 03/02 A3004
RMK AO2 VIS 1/4V5 P0002 T00280017





000
SAUS46 KSTO 202255
MTRBLU
SPECI KBLU 202254Z AUTO 18008KT 1 1/2SM RA BR BKN004 OVC009 03/02
A3004 RMK AO2 P0001 T00280017





000
SAUS46 KSTO 202253
MTRBLU
METAR KBLU 202252Z AUTO 19006KT 5SM RA BR BKN004 OVC009 03/02 A3004
RMK AO2 SLP159 P0017 T00280017





000
SAUS46 KSTO 202244
MTRBLU
SPECI KBLU 202243Z AUTO 20009G15KT 2SM RA BR OVC002 03/01 A3004 RMK
AO2 VIS 3/4V4 P0016 T00280011





000
SAUS46 KSTO 202237
MTRBLU
SPECI KBLU 202236Z AUTO 20009G18KT 1SM +RA BR OVC002 03/02 A3004 RMK
AO2 P0013 T00330017





000
SAUS46 KSTO 202223
MTRBLU
SPECI KBLU 202222Z AUTO 18009KT 140V210 M1/4SM RA FG VV002 04/03
A3003 RMK AO2 P0003 T00390028





000
SAUS46 KSTO 202153
MTRBLU
METAR KBLU 202152Z AUTO 17009KT M1/4SM -RA FG VV001 04/03 A3003 RMK
AO2 SLP156 P0005 T00390028





000
SAUS46 KSTO 202130
MTRBLU
SPECI KBLU 202128Z AUTO 15007KT M1/4SM RA FG VV001 04/02 A3005 RMK
AO2 P0002 T00390022





000
SAUS46 KSTO 202059
MTRBLU
SPECI KBLU 202058Z AUTO 15007KT 1/4SM -RA FG BKN003 OVC007 04/02
A3005 RMK AO2 P0000 T00390022





000
SAUS46 KSTO 202053
MTRBLU
METAR KBLU 202052Z AUTO 16008KT 1SM -RA BR BKN003 OVC009 03/02 A3005
RMK AO2 RAE08B32 SLP165 P0001 60001 T00330022 58017





000
SAUS46 KSTO 202050
MTRBLU
SPECI KBLU 202049Z AUTO 16011G15KT 2 1/2SM -RA BR BKN003 OVC009
04/02 A3006 RMK AO2 RAE08B32 P0001





000
SAUS46 KSTO 202044
MTRBLU
SPECI KBLU 202043Z AUTO 15007KT 4SM -RA BR BKN006 OVC011 04/02 A3006
RMK AO2 RAE08B32 CIG 002V007 P0001 T00390022





000
SAUS46 KSTO 202002
MTRBLU
SPECI KBLU 202001Z AUTO 17008KT 9SM -RA FEW006 OVC011 04/02 A3008
RMK AO2 P0000 T00390022





000
SAUS46 KSTO 201953
MTRBLU
METAR KBLU 201952Z AUTO 17009KT 6SM -RA BR OVC011 04/02 A3008 RMK
AO2 RAB23 SLP172 P0000 T00390017





000
SAUS46 KSTO 201853
MTRBLU
METAR KBLU 201852Z AUTO 17009KT 10SM OVC009 06/03 A3010 RMK AO2
SLP175 T00560028





000
SAUS46 KSTO 201812
MTRBLU
SPECI KBLU 201811Z AUTO 15007KT 10SM BKN012 OVC022 06/02 A3011 RMK
AO2 T00610022





000
SAUS46 KSTO 201753
MTRBLU
METAR KBLU 201752Z AUTO 15009G15KT 10SM FEW014 OVC023 06/02 A3011
RMK AO2 SLP178 T00610022 10061 20033 52002





000
SAUS46 KSTO 201653
MTRBLU
METAR KBLU 201652Z AUTO 15007KT 10SM OVC020 06/02 A3011 RMK AO2
SLP180 T00560017





000
SAUS46 KSTO 200022
MTRBLU
SPECI KBLU 200020Z AUTO 16012G18KT 1 1/2SM -RA BR OVC002 04/03 A3012
RMK AO2 RAE03B20 P0001 T00440028





000
SAUS46 KSTO 192354 COR
MTRBLU
METAR KBLU 192352Z AUTO 17013G17KT 3SM -RA BR BKN008 OVC013 04/03
A3012 RMK AO2 RAB2257 CIG 003V011 SLP174 P0006 60009 T00440028 10089
20044 53007





000
SAUS46 KSTO 192348
MTRBLU
SPECI KBLU 192347Z AUTO 16009KT 3SM RA BR BKN008 OVC013 04/03 A3012
RMK AO2 RAB2257 CIG 005V011 P0006





000
SAUS46 KSTO 192334
MTRBLU
SPECI KBLU 192332Z AUTO 14006G15KT 4SM -RA BR BKN010 OVC013 04/03
A3011 RMK AO2 RAB2257 CIG 005V012 P0004 T00440028





000
SAUS46 KSTO 192322
MTRBLU
SPECI KBLU 192321Z AUTO 15007KT 2SM RA BR SCT008 OVC013 04/03 A3011
RMK AO2 RAB2257 P0003 T00440028





000
SAUS46 KSTO 192317
MTRBLU
SPECI KBLU 192316Z AUTO VRB05KT 1 3/4SM RA BR BKN013 OVC018 04/02
A3011 RMK AO2 RAB2257 P0002 T00440022





000
SAUS46 KSTO 192253
MTRBLU
METAR KBLU 192252Z AUTO 14008KT 100V180 5SM BR FEW012 BKN018 OVC023
04/02 A3009 RMK AO2 RAE23 SLP163 P0001 T00440022





000
SAUS46 KSTO 192153
MTRBLU
METAR KBLU 192152Z AUTO 15009KT 6SM -RA BKN021 OVC032 05/01 A3009
RMK AO2 SLP166 P0001 T00500011





000
SAUS46 KSTO 192053
MTRBLU
METAR KBLU 192052Z AUTO 13007KT 100V170 10SM -RA SCT025 OVC032 05/01
A3010 RMK AO2 RAB25 SLP166 P0001 60001 T00500006 56013





000
SAUS46 KSTO 192038
MTRBLU
SPECI KBLU 192037Z AUTO 12008G21KT 080V150 7SM -RA FEW015 BKN025
OVC037 05/M01 A3011 RMK AO2 RAB25 P0000 T00501011





000
SAUS46 KSTO 191953
MTRBLU
METAR KBLU 191952Z AUTO 15008G21KT 110V180 10SM BKN034 OVC041 07/M04
A3012 RMK AO2 SLP166 T00721044





000
SAUS46 KSTO 191853
MTRBLU
METAR KBLU 191852Z AUTO 16013G21KT 10SM BKN046 OVC060 08/M06 A3013
RMK AO2 SLP165 T00831061





000
SAUS46 KSTO 191753
MTRBLU
METAR KBLU 191752Z AUTO 15009G23KT 10SM OVC047 08/M09 A3015 RMK AO2
SLP171 T00831094 10089 20078 53004





000
SAUS46 KSTO 191653
MTRBLU
METAR KBLU 191652Z AUTO 16008KT 10SM BKN060 OVC070 08/M13 A3014 RMK
AO2 SLP172 T00831128





000
SAUS46 KSTO 191553
MTRBLU
METAR KBLU 191552Z AUTO 16008KT 10SM BKN070 OVC085 08/M14 A3014 RMK
AO2 SLP170 T00831144





000
SAUS46 KSTO 191453
MTRBLU
METAR KBLU 191452Z AUTO 16007G16KT 120V180 10SM SCT060 08/M15 A3013
RMK AO2 SLP169 T00831150 55003





000
SAUS46 KSTO 191353
MTRBLU
METAR KBLU 191352Z AUTO 13005KT 10SM BKN075 OVC100 08/M14 A3012 RMK
AO2 SLP168 T00781139





000
SAUS46 KSTO 191253
MTRBLU
METAR KBLU 191252Z AUTO 15009KT 10SM CLR 08/M15 A3013 RMK AO2 SLP166
T00831150





000
SAUS46 KSTO 191153
MTRBLU
METAR KBLU 191152Z AUTO 15007KT 10SM SCT080 09/M16 A3014 RMK AO2
SLP167 T00891156 10100 20083 58008





000
SAUS46 KSTO 191053
MTRBLU
METAR KBLU 191052Z AUTO 17008KT 10SM SCT070 OVC110 09/M17 A3015 RMK
AO2 SLP168 T00941167





    US Dept of Commerce
    National Oceanic and Atmospheric Administration
    National Weather Service
    1325 East West Highway
    Silver Spring, MD 20910
    Page Author: NWS Internet Services Team
Disclaimer
Information Quality
Credits
Glossary
Privacy Policy
Freedom of Information Act (FOIA)
About Us
Career Opportunities